CheckWX is a tool to help pilots better visualize weather data.  It is not intended as a substitute for an official pre-flight weather briefing.

08:03:30 UTC

RJEC TAF
Asahikawa Airport
Asahikawa / Hokkaidō, Japan
TAF RJEC 190508Z 1906/2012 23007KT 9999 FEW008 BKN015 BECMG 1907/1909 32005KT TEMPO 1909/1912 3000 BR TEMPO 1912/1921 1500 BR FEW001 BKN003 BECMG 1918/1921 18018KT

Mar-19@
06:00 UTC

Mar-19 @ 06:00 UTC

Mar-19@
07:00 UTC

Mar-19 @ 07:00 UTC

TAF RJEC 190508Z 1906/2012 23007KT 9999 FEW008 BKN015

Expired

Wind
  • 230° at 7 KTS
Cloud Levels
  • Few at 800' AGL
  • Broken at 1,500' AGL

Mar-19@
07:00 UTC

Mar-19 @ 07:00 UTC

Mar-19@
18:00 UTC

Mar-19 @ 18:00 UTC

BECMG 1907/1909 32005KT

Becoming

Becoming Conditions expected by Tue, Mar 19, 2019 @ 09:00 UTC

Wind
  • 320° at 5 KTS
Cloud Levels
  • Few at 800' AGL
  • Broken at 1,500' AGL

Mar-19@
09:00 UTC

Mar-19 @ 09:00 UTC

Mar-19@
12:00 UTC

Mar-19 @ 12:00 UTC

TEMPO 1909/1912 3000 BR

Temporary

Temporary Changes expected for less than half the time period

Conditions
Mist

Mar-19@
12:00 UTC

Mar-19 @ 12:00 UTC

Mar-19@
21:00 UTC

Mar-19 @ 21:00 UTC

TEMPO 1912/1921 1500 BR FEW001 BKN003

Temporary

Temporary Changes expected for less than half the time period

Conditions
Mist
Cloud Levels
  • Few at 100' AGL
  • Broken at 300' AGL

Mar-19@
18:00 UTC

Mar-19 @ 18:00 UTC

Mar-20@
12:00 UTC

Mar-20 @ 12:00 UTC

BECMG 1918/1921 18018KT

Becoming

Becoming Conditions expected by Tue, Mar 19, 2019 @ 21:00 UTC

Wind
  • 180° at 18 KTS
Cloud Levels
  • Few at 800' AGL
  • Broken at 1,500' AGL